sensor_id;sensor_type;location;lat;lon;timestamp;P1;durP1;ratioP1;P2;durP2;ratioP2
23288;SDS011;11813;50.834;4.280;2022-11-20T00:00:09;58.57;;;26.27;;
23288;SDS011;11813;50.834;4.280;2022-11-20T00:02:35;57.40;;;27.47;;
23288;SDS011;11813;50.834;4.280;2022-11-20T00:05:00;51.17;;;26.57;;
23288;SDS011;11813;50.834;4.280;2022-11-20T00:07:26;52.63;;;26.50;;
23288;SDS011;11813;50.834;4.280;2022-11-20T00:09:52;54.77;;;27.17;;
23288;SDS011;11813;50.834;4.280;2022-11-20T00:12:17;52.20;;;25.50;;
23288;SDS011;11813;50.834;4.280;2022-11-20T00:14:43;54.87;;;28.03;;
23288;SDS011;11813;50.834;4.280;2022-11-20T00:17:08;51.03;;;26.10;;
23288;SDS011;11813;50.834;4.280;2022-11-20T00:19:34;62.17;;;28.17;;
23288;SDS011;11813;50.834;4.280;2022-11-20T00:22:00;56.77;;;27.20;;
23288;SDS011;11813;50.834;4.280;2022-11-20T00:24:25;52.93;;;26.10;;
23288;SDS011;11813;50.834;4.280;2022-11-20T00:26:51;55.13;;;25.40;;
23288;SDS011;11813;50.834;4.280;2022-11-20T00:29:16;49.27;;;26.53;;
23288;SDS011;11813;50.834;4.280;2022-11-20T00:31:42;55.90;;;25.23;;
23288;SDS011;11813;50.834;4.280;2022-11-20T00:34:08;55.20;;;25.83;;
23288;SDS011;11813;50.834;4.280;2022-11-20T00:36:34;53.97;;;25.30;;
23288;SDS011;11813;50.834;4.280;2022-11-20T00:39:00;53.73;;;26.40;;
23288;SDS011;11813;50.834;4.280;2022-11-20T00:41:26;53.57;;;26.23;;
23288;SDS011;11813;50.834;4.280;2022-11-20T00:43:53;53.83;;;25.83;;
23288;SDS011;11813;50.834;4.280;2022-11-20T00:46:21;48.77;;;25.17;;
23288;SDS011;11813;50.834;4.280;2022-11-20T00:48:48;52.63;;;25.33;;
23288;SDS011;11813;50.834;4.280;2022-11-20T00:51:16;49.70;;;24.07;;
23288;SDS011;11813;50.834;4.280;2022-11-20T00:53:45;50.77;;;24.57;;
23288;SDS011;11813;50.834;4.280;2022-11-20T00:56:12;46.87;;;25.20;;
23288;SDS011;11813;50.834;4.280;2022-11-20T00:58:40;47.83;;;24.53;;
23288;SDS011;11813;50.834;4.280;2022-11-20T01:01:08;55.77;;;25.63;;
23288;SDS011;11813;50.834;4.280;2022-11-20T01:03:37;48.00;;;24.17;;
23288;SDS011;11813;50.834;4.280;2022-11-20T01:06:06;55.60;;;26.23;;
23288;SDS011;11813;50.834;4.280;2022-11-20T01:08:35;49.77;;;24.20;;
23288;SDS011;11813;50.834;4.280;2022-11-20T01:11:01;50.40;;;25.43;;
23288;SDS011;11813;50.834;4.280;2022-11-20T01:13:29;48.53;;;24.13;;
23288;SDS011;11813;50.834;4.280;2022-11-20T01:16:09;50.73;;;25.53;;
23288;SDS011;11813;50.834;4.280;2022-11-20T01:18:35;47.90;;;25.10;;
23288;SDS011;11813;50.834;4.280;2022-11-20T01:21:03;53.23;;;25.73;;
23288;SDS011;11813;50.834;4.280;2022-11-20T01:23:31;51.13;;;25.37;;
23288;SDS011;11813;50.834;4.280;2022-11-20T01:26:02;46.73;;;24.33;;
23288;SDS011;11813;50.834;4.280;2022-11-20T01:28:29;48.03;;;25.17;;
23288;SDS011;11813;50.834;4.280;2022-11-20T01:30:55;50.23;;;24.83;;
23288;SDS011;11813;50.834;4.280;2022-11-20T01:33:21;49.83;;;24.90;;
23288;SDS011;11813;50.834;4.280;2022-11-20T01:35:47;53.37;;;25.83;;
23288;SDS011;11813;50.834;4.280;2022-11-20T01:38:12;51.43;;;25.40;;
23288;SDS011;11813;50.834;4.280;2022-11-20T01:40:39;54.57;;;25.30;;
23288;SDS011;11813;50.834;4.280;2022-11-20T01:43:16;46.50;;;24.90;;
23288;SDS011;11813;50.834;4.280;2022-11-20T01:48:36;50.63;;;25.63;;
23288;SDS011;11813;50.834;4.280;2022-11-20T01:51:06;50.73;;;26.10;;
23288;SDS011;11813;50.834;4.280;2022-11-20T01:53:40;52.03;;;25.60;;
23288;SDS011;11813;50.834;4.280;2022-11-20T01:56:07;49.10;;;24.67;;
23288;SDS011;11813;50.834;4.280;2022-11-20T01:58:37;54.63;;;26.47;;
23288;SDS011;11813;50.834;4.280;2022-11-20T02:01:08;54.77;;;26.53;;
23288;SDS011;11813;50.834;4.280;2022-11-20T02:03:34;53.13;;;25.70;;
23288;SDS011;11813;50.834;4.280;2022-11-20T02:06:04;54.53;;;25.77;;
23288;SDS011;11813;50.834;4.280;2022-11-20T02:08:39;49.80;;;24.90;;
23288;SDS011;11813;50.834;4.280;2022-11-20T02:11:04;51.20;;;26.23;;
23288;SDS011;11813;50.834;4.280;2022-11-20T02:13:30;51.23;;;25.63;;
23288;SDS011;11813;50.834;4.280;2022-11-20T02:16:09;51.83;;;25.77;;
23288;SDS011;11813;50.834;4.280;2022-11-20T02:18:40;56.80;;;26.60;;
23288;SDS011;11813;50.834;4.280;2022-11-20T02:21:09;51.90;;;25.07;;
23288;SDS011;11813;50.834;4.280;2022-11-20T02:23:38;52.57;;;25.00;;
23288;SDS011;11813;50.834;4.280;2022-11-20T02:26:09;52.40;;;25.47;;
23288;SDS011;11813;50.834;4.280;2022-11-20T02:28:38;53.97;;;24.77;;
23288;SDS011;11813;50.834;4.280;2022-11-20T02:31:04;59.10;;;27.37;;
23288;SDS011;11813;50.834;4.280;2022-11-20T02:33:29;58.00;;;26.53;;
23288;SDS011;11813;50.834;4.280;2022-11-20T02:35:55;57.53;;;26.67;;
23288;SDS011;11813;50.834;4.280;2022-11-20T02:38:20;67.47;;;27.07;;
23288;SDS011;11813;50.834;4.280;2022-11-20T02:40:46;63.90;;;26.30;;
23288;SDS011;11813;50.834;4.280;2022-11-20T02:43:11;61.60;;;26.53;;
23288;SDS011;11813;50.834;4.280;2022-11-20T02:45:37;59.47;;;27.70;;
23288;SDS011;11813;50.834;4.280;2022-11-20T02:48:03;71.47;;;29.60;;
23288;SDS011;11813;50.834;4.280;2022-11-20T02:50:29;71.40;;;28.57;;
23288;SDS011;11813;50.834;4.280;2022-11-20T02:52:54;68.97;;;27.77;;
23288;SDS011;11813;50.834;4.280;2022-11-20T02:55:20;66.53;;;29.20;;
23288;SDS011;11813;50.834;4.280;2022-11-20T02:57:45;69.20;;;28.30;;
23288;SDS011;11813;50.834;4.280;2022-11-20T03:00:11;57.93;;;26.23;;
23288;SDS011;11813;50.834;4.280;2022-11-20T03:02:37;73.53;;;29.23;;
23288;SDS011;11813;50.834;4.280;2022-11-20T03:05:03;72.30;;;28.47;;
23288;SDS011;11813;50.834;4.280;2022-11-20T03:07:28;65.20;;;28.40;;
23288;SDS011;11813;50.834;4.280;2022-11-20T03:09:54;67.93;;;27.47;;
23288;SDS011;11813;50.834;4.280;2022-11-20T03:12:20;59.30;;;26.67;;
23288;SDS011;11813;50.834;4.280;2022-11-20T03:14:45;61.73;;;27.33;;
23288;SDS011;11813;50.834;4.280;2022-11-20T03:17:11;60.50;;;26.07;;
23288;SDS011;11813;50.834;4.280;2022-11-20T03:19:36;54.73;;;24.80;;
23288;SDS011;11813;50.834;4.280;2022-11-20T03:22:02;66.40;;;25.80;;
23288;SDS011;11813;50.834;4.280;2022-11-20T03:24:28;57.80;;;26.30;;
23288;SDS011;11813;50.834;4.280;2022-11-20T03:26:54;62.67;;;25.00;;
23288;SDS011;11813;50.834;4.280;2022-11-20T03:29:20;61.07;;;26.00;;
23288;SDS011;11813;50.834;4.280;2022-11-20T03:31:45;53.83;;;25.63;;
23288;SDS011;11813;50.834;4.280;2022-11-20T03:34:11;55.30;;;25.10;;
23288;SDS011;11813;50.834;4.280;2022-11-20T03:36:38;54.37;;;25.60;;
23288;SDS011;11813;50.834;4.280;2022-11-20T03:39:05;51.27;;;24.23;;
23288;SDS011;11813;50.834;4.280;2022-11-20T03:41:34;55.67;;;25.20;;
23288;SDS011;11813;50.834;4.280;2022-11-20T03:44:03;56.40;;;24.13;;
23288;SDS011;11813;50.834;4.280;2022-11-20T03:46:30;60.20;;;26.33;;
23288;SDS011;11813;50.834;4.280;2022-11-20T03:48:56;54.23;;;25.70;;
23288;SDS011;11813;50.834;4.280;2022-11-20T03:53:53;52.40;;;23.87;;
23288;SDS011;11813;50.834;4.280;2022-11-20T03:56:22;56.23;;;25.23;;
23288;SDS011;11813;50.834;4.280;2022-11-20T03:58:49;55.10;;;25.33;;
23288;SDS011;11813;50.834;4.280;2022-11-20T04:01:19;60.30;;;26.00;;
23288;SDS011;11813;50.834;4.280;2022-11-20T04:03:46;54.80;;;24.13;;
23288;SDS011;11813;50.834;4.280;2022-11-20T04:06:13;50.47;;;23.47;;
23288;SDS011;11813;50.834;4.280;2022-11-20T04:08:41;60.40;;;26.43;;
23288;SDS011;11813;50.834;4.280;2022-11-20T04:11:17;48.60;;;22.57;;
23288;SDS011;11813;50.834;4.280;2022-11-20T04:13:51;50.77;;;22.67;;
23288;SDS011;11813;50.834;4.280;2022-11-20T04:16:18;50.07;;;24.20;;
23288;SDS011;11813;50.834;4.280;2022-11-20T04:18:45;49.33;;;22.00;;
23288;SDS011;11813;50.834;4.280;2022-11-20T04:21:10;51.50;;;22.03;;
23288;SDS011;11813;50.834;4.280;2022-11-20T04:23:36;58.03;;;24.10;;
23288;SDS011;11813;50.834;4.280;2022-11-20T04:26:06;59.70;;;23.83;;
23288;SDS011;11813;50.834;4.280;2022-11-20T04:28:34;52.17;;;23.47;;
23288;SDS011;11813;50.834;4.280;2022-11-20T04:31:04;58.70;;;24.23;;
23288;SDS011;11813;50.834;4.280;2022-11-20T04:33:40;52.63;;;22.73;;
23288;SDS011;11813;50.834;4.280;2022-11-20T04:36:07;68.37;;;26.03;;
23288;SDS011;11813;50.834;4.280;2022-11-20T04:38:38;56.17;;;24.77;;
23288;SDS011;11813;50.834;4.280;2022-11-20T04:41:05;56.10;;;24.50;;
23288;SDS011;11813;50.834;4.280;2022-11-20T04:43:35;61.77;;;23.47;;
23288;SDS011;11813;50.834;4.280;2022-11-20T04:46:00;61.40;;;24.83;;
23288;SDS011;11813;50.834;4.280;2022-11-20T04:48:27;58.97;;;24.67;;
23288;SDS011;11813;50.834;4.280;2022-11-20T04:50:53;63.80;;;24.77;;
23288;SDS011;11813;50.834;4.280;2022-11-20T04:53:19;55.87;;;25.07;;
23288;SDS011;11813;50.834;4.280;2022-11-20T04:55:46;61.60;;;24.37;;
23288;SDS011;11813;50.834;4.280;2022-11-20T04:58:11;58.87;;;25.43;;
23288;SDS011;11813;50.834;4.280;2022-11-20T05:00:38;58.33;;;24.97;;
23288;SDS011;11813;50.834;4.280;2022-11-20T05:03:04;62.40;;;25.43;;
23288;SDS011;11813;50.834;4.280;2022-11-20T05:05:29;65.20;;;26.33;;
23288;SDS011;11813;50.834;4.280;2022-11-20T05:07:58;64.80;;;25.03;;
23288;SDS011;11813;50.834;4.280;2022-11-20T05:10:25;66.33;;;27.23;;
23288;SDS011;11813;50.834;4.280;2022-11-20T05:12:50;73.27;;;26.70;;
23288;SDS011;11813;50.834;4.280;2022-11-20T05:15:16;69.63;;;27.40;;
23288;SDS011;11813;50.834;4.280;2022-11-20T05:17:46;63.87;;;26.83;;
23288;SDS011;11813;50.834;4.280;2022-11-20T05:20:15;65.67;;;25.37;;
23288;SDS011;11813;50.834;4.280;2022-11-20T05:22:41;62.83;;;26.13;;
23288;SDS011;11813;50.834;4.280;2022-11-20T05:25:08;70.37;;;26.57;;
23288;SDS011;11813;50.834;4.280;2022-11-20T05:27:33;69.87;;;27.50;;
23288;SDS011;11813;50.834;4.280;2022-11-20T05:29:59;71.37;;;26.47;;
23288;SDS011;11813;50.834;4.280;2022-11-20T05:32:24;68.90;;;26.67;;
23288;SDS011;11813;50.834;4.280;2022-11-20T05:34:50;71.00;;;25.70;;
23288;SDS011;11813;50.834;4.280;2022-11-20T05:37:16;71.10;;;26.90;;
23288;SDS011;11813;50.834;4.280;2022-11-20T05:39:42;66.63;;;24.23;;
23288;SDS011;11813;50.834;4.280;2022-11-20T05:42:07;80.60;;;27.57;;
23288;SDS011;11813;50.834;4.280;2022-11-20T05:44:51;66.97;;;26.63;;
23288;SDS011;11813;50.834;4.280;2022-11-20T05:47:17;75.00;;;26.93;;
23288;SDS011;11813;50.834;4.280;2022-11-20T05:49:42;82.90;;;27.47;;
23288;SDS011;11813;50.834;4.280;2022-11-20T05:52:08;82.87;;;27.97;;
23288;SDS011;11813;50.834;4.280;2022-11-20T05:54:33;72.80;;;28.00;;
23288;SDS011;11813;50.834;4.280;2022-11-20T05:57:00;70.93;;;27.13;;
23288;SDS011;11813;50.834;4.280;2022-11-20T05:59:26;83.00;;;29.40;;
23288;SDS011;11813;50.834;4.280;2022-11-20T06:01:51;82.47;;;27.27;;
23288;SDS011;11813;50.834;4.280;2022-11-20T06:04:17;77.77;;;27.63;;
23288;SDS011;11813;50.834;4.280;2022-11-20T06:06:43;73.17;;;28.43;;
23288;SDS011;11813;50.834;4.280;2022-11-20T06:09:08;75.90;;;27.63;;
23288;SDS011;11813;50.834;4.280;2022-11-20T06:11:34;68.53;;;26.40;;
23288;SDS011;11813;50.834;4.280;2022-11-20T06:14:00;74.57;;;25.70;;
23288;SDS011;11813;50.834;4.280;2022-11-20T06:16:25;80.37;;;28.13;;
23288;SDS011;11813;50.834;4.280;2022-11-20T06:18:51;71.93;;;26.33;;
23288;SDS011;11813;50.834;4.280;2022-11-20T06:21:18;83.43;;;28.33;;
23288;SDS011;11813;50.834;4.280;2022-11-20T06:23:45;71.77;;;26.30;;
23288;SDS011;11813;50.834;4.280;2022-11-20T06:26:12;73.13;;;25.70;;
23288;SDS011;11813;50.834;4.280;2022-11-20T06:28:40;73.23;;;26.33;;
23288;SDS011;11813;50.834;4.280;2022-11-20T06:31:06;66.27;;;25.03;;
23288;SDS011;11813;50.834;4.280;2022-11-20T06:33:32;71.13;;;27.43;;
23288;SDS011;11813;50.834;4.280;2022-11-20T06:35:58;78.23;;;26.63;;
23288;SDS011;11813;50.834;4.280;2022-11-20T06:38:25;74.97;;;25.77;;
23288;SDS011;11813;50.834;4.280;2022-11-20T06:40:51;72.03;;;26.33;;
23288;SDS011;11813;50.834;4.280;2022-11-20T06:43:17;66.23;;;25.80;;
23288;SDS011;11813;50.834;4.280;2022-11-20T06:45:42;71.37;;;25.27;;
23288;SDS011;11813;50.834;4.280;2022-11-20T06:48:08;60.13;;;24.20;;
23288;SDS011;11813;50.834;4.280;2022-11-20T06:50:34;66.23;;;26.73;;
23288;SDS011;11813;50.834;4.280;2022-11-20T06:53:02;74.97;;;31.93;;
23288;SDS011;11813;50.834;4.280;2022-11-20T06:55:28;70.87;;;28.13;;
23288;SDS011;11813;50.834;4.280;2022-11-20T06:57:55;75.20;;;26.07;;
23288;SDS011;11813;50.834;4.280;2022-11-20T07:00:20;65.13;;;26.27;;
23288;SDS011;11813;50.834;4.280;2022-11-20T07:02:46;72.73;;;27.13;;
23288;SDS011;11813;50.834;4.280;2022-11-20T07:05:12;67.27;;;24.90;;
23288;SDS011;11813;50.834;4.280;2022-11-20T07:07:37;58.63;;;24.90;;
23288;SDS011;11813;50.834;4.280;2022-11-20T07:10:03;63.10;;;25.27;;
23288;SDS011;11813;50.834;4.280;2022-11-20T07:12:29;62.73;;;22.20;;
23288;SDS011;11813;50.834;4.280;2022-11-20T07:14:55;59.40;;;24.67;;
23288;SDS011;11813;50.834;4.280;2022-11-20T07:17:21;55.80;;;25.63;;
23288;SDS011;11813;50.834;4.280;2022-11-20T07:19:47;57.30;;;23.43;;
23288;SDS011;11813;50.834;4.280;2022-11-20T07:22:12;63.80;;;24.80;;
23288;SDS011;11813;50.834;4.280;2022-11-20T07:24:38;53.57;;;23.60;;
23288;SDS011;11813;50.834;4.280;2022-11-20T07:27:04;57.07;;;23.70;;
23288;SDS011;11813;50.834;4.280;2022-11-20T07:29:30;64.97;;;24.43;;
23288;SDS011;11813;50.834;4.280;2022-11-20T07:31:56;56.10;;;23.20;;
23288;SDS011;11813;50.834;4.280;2022-11-20T07:34:21;61.80;;;23.10;;
23288;SDS011;11813;50.834;4.280;2022-11-20T07:36:47;60.33;;;22.67;;
23288;SDS011;11813;50.834;4.280;2022-11-20T07:39:13;55.70;;;23.03;;
23288;SDS011;11813;50.834;4.280;2022-11-20T07:41:38;59.03;;;23.30;;
23288;SDS011;11813;50.834;4.280;2022-11-20T07:44:04;65.00;;;25.40;;
23288;SDS011;11813;50.834;4.280;2022-11-20T07:46:30;57.70;;;22.10;;
23288;SDS011;11813;50.834;4.280;2022-11-20T07:48:55;60.00;;;23.23;;
23288;SDS011;11813;50.834;4.280;2022-11-20T07:51:21;59.50;;;22.60;;
23288;SDS011;11813;50.834;4.280;2022-11-20T07:53:47;65.23;;;24.13;;
23288;SDS011;11813;50.834;4.280;2022-11-20T07:56:16;60.60;;;23.03;;
23288;SDS011;11813;50.834;4.280;2022-11-20T07:58:41;69.73;;;22.97;;
23288;SDS011;11813;50.834;4.280;2022-11-20T08:01:07;57.90;;;21.87;;
23288;SDS011;11813;50.834;4.280;2022-11-20T08:03:33;55.80;;;22.20;;
23288;SDS011;11813;50.834;4.280;2022-11-20T08:05:59;60.80;;;22.97;;
23288;SDS011;11813;50.834;4.280;2022-11-20T08:08:25;59.77;;;22.73;;
23288;SDS011;11813;50.834;4.280;2022-11-20T08:10:51;74.47;;;23.27;;
23288;SDS011;11813;50.834;4.280;2022-11-20T08:13:17;62.03;;;23.13;;
23288;SDS011;11813;50.834;4.280;2022-11-20T08:16:09;66.07;;;24.10;;
23288;SDS011;11813;50.834;4.280;2022-11-20T08:18:35;61.40;;;22.63;;
23288;SDS011;11813;50.834;4.280;2022-11-20T08:21:01;67.37;;;23.80;;
23288;SDS011;11813;50.834;4.280;2022-11-20T08:23:28;70.77;;;23.50;;
23288;SDS011;11813;50.834;4.280;2022-11-20T08:25:55;64.23;;;21.93;;
23288;SDS011;11813;50.834;4.280;2022-11-20T08:28:20;66.57;;;23.60;;
23288;SDS011;11813;50.834;4.280;2022-11-20T08:30:46;70.27;;;21.57;;
23288;SDS011;11813;50.834;4.280;2022-11-20T08:33:11;59.73;;;22.60;;
23288;SDS011;11813;50.834;4.280;2022-11-20T08:35:37;75.20;;;23.03;;
23288;SDS011;11813;50.834;4.280;2022-11-20T08:38:05;64.40;;;22.80;;
23288;SDS011;11813;50.834;4.280;2022-11-20T08:40:32;71.40;;;23.07;;
23288;SDS011;11813;50.834;4.280;2022-11-20T08:42:58;68.77;;;22.83;;
23288;SDS011;11813;50.834;4.280;2022-11-20T08:45:24;67.23;;;23.50;;
23288;SDS011;11813;50.834;4.280;2022-11-20T08:47:50;62.67;;;24.13;;
23288;SDS011;11813;50.834;4.280;2022-11-20T08:50:16;61.47;;;21.43;;
23288;SDS011;11813;50.834;4.280;2022-11-20T08:52:42;64.10;;;22.83;;
23288;SDS011;11813;50.834;4.280;2022-11-20T08:55:08;63.17;;;24.10;;
23288;SDS011;11813;50.834;4.280;2022-11-20T08:57:35;63.80;;;22.97;;
23288;SDS011;11813;50.834;4.280;2022-11-20T09:00:01;58.63;;;22.57;;
23288;SDS011;11813;50.834;4.280;2022-11-20T09:02:28;60.37;;;24.47;;
23288;SDS011;11813;50.834;4.280;2022-11-20T09:04:54;58.37;;;22.37;;
23288;SDS011;11813;50.834;4.280;2022-11-20T09:07:19;63.57;;;23.97;;
23288;SDS011;11813;50.834;4.280;2022-11-20T09:09:45;61.23;;;23.30;;
23288;SDS011;11813;50.834;4.280;2022-11-20T09:12:11;53.17;;;21.77;;
23288;SDS011;11813;50.834;4.280;2022-11-20T09:14:36;57.33;;;19.67;;
23288;SDS011;11813;50.834;4.280;2022-11-20T09:17:02;54.57;;;20.70;;
23288;SDS011;11813;50.834;4.280;2022-11-20T09:19:27;51.87;;;20.47;;
23288;SDS011;11813;50.834;4.280;2022-11-20T09:21:53;52.67;;;20.40;;
23288;SDS011;11813;50.834;4.280;2022-11-20T09:24:19;49.63;;;20.63;;
23288;SDS011;11813;50.834;4.280;2022-11-20T09:26:46;56.23;;;20.60;;
23288;SDS011;11813;50.834;4.280;2022-11-20T09:29:12;47.90;;;21.30;;
23288;SDS011;11813;50.834;4.280;2022-11-20T09:31:38;55.37;;;20.40;;
23288;SDS011;11813;50.834;4.280;2022-11-20T09:34:03;53.63;;;21.00;;
23288;SDS011;11813;50.834;4.280;2022-11-20T09:36:29;48.10;;;20.63;;
23288;SDS011;11813;50.834;4.280;2022-11-20T09:38:54;50.97;;;20.43;;
23288;SDS011;11813;50.834;4.280;2022-11-20T09:43:52;42.53;;;17.83;;
23288;SDS011;11813;50.834;4.280;2022-11-20T09:46:29;45.00;;;19.27;;
23288;SDS011;11813;50.834;4.280;2022-11-20T09:51:57;38.40;;;17.80;;
23288;SDS011;11813;50.834;4.280;2022-11-20T09:54:35;37.23;;;16.87;;
23288;SDS011;11813;50.834;4.280;2022-11-20T09:57:13;41.27;;;17.57;;
23288;SDS011;11813;50.834;4.280;2022-11-20T09:59:45;37.30;;;17.57;;
23288;SDS011;11813;50.834;4.280;2022-11-20T10:05:18;35.33;;;15.13;;
23288;SDS011;11813;50.834;4.280;2022-11-20T10:10:36;27.63;;;14.73;;
23288;SDS011;11813;50.834;4.280;2022-11-20T10:19:01;24.03;;;12.63;;
23288;SDS011;11813;50.834;4.280;2022-11-20T10:21:53;25.30;;;11.90;;
23288;SDS011;11813;50.834;4.280;2022-11-20T10:29:47;18.33;;;9.23;;
23288;SDS011;11813;50.834;4.280;2022-11-20T10:32:30;17.97;;;8.80;;
23288;SDS011;11813;50.834;4.280;2022-11-20T10:35:03;17.07;;;8.23;;
23288;SDS011;11813;50.834;4.280;2022-11-20T10:37:33;15.50;;;8.07;;
23288;SDS011;11813;50.834;4.280;2022-11-20T10:40:25;13.60;;;6.97;;
23288;SDS011;11813;50.834;4.280;2022-11-20T10:43:01;11.57;;;6.47;;
23288;SDS011;11813;50.834;4.280;2022-11-20T10:48:26;15.90;;;6.57;;
23288;SDS011;11813;50.834;4.280;2022-11-20T10:56:21;12.47;;;6.90;;
23288;SDS011;11813;50.834;4.280;2022-11-20T11:01:42;14.47;;;6.87;;
23288;SDS011;11813;50.834;4.280;2022-11-20T11:04:15;14.27;;;6.40;;
23288;SDS011;11813;50.834;4.280;2022-11-20T11:06:53;12.87;;;5.57;;
23288;SDS011;11813;50.834;4.280;2022-11-20T11:09:32;11.77;;;6.13;;
23288;SDS011;11813;50.834;4.280;2022-11-20T11:12:05;14.33;;;5.70;;
23288;SDS011;11813;50.834;4.280;2022-11-20T11:14:41;15.67;;;5.73;;
23288;SDS011;11813;50.834;4.280;2022-11-20T11:17:20;14.73;;;6.10;;
23288;SDS011;11813;50.834;4.280;2022-11-20T11:20:14;14.60;;;6.47;;
23288;SDS011;11813;50.834;4.280;2022-11-20T11:22:44;12.97;;;6.13;;
23288;SDS011;11813;50.834;4.280;2022-11-20T11:25:18;13.37;;;5.10;;
23288;SDS011;11813;50.834;4.280;2022-11-20T11:27:46;12.70;;;5.47;;
23288;SDS011;11813;50.834;4.280;2022-11-20T11:30:14;13.53;;;5.30;;
23288;SDS011;11813;50.834;4.280;2022-11-20T11:32:41;8.47;;;4.87;;
23288;SDS011;11813;50.834;4.280;2022-11-20T11:35:18;14.13;;;5.70;;
23288;SDS011;11813;50.834;4.280;2022-11-20T11:37:45;16.60;;;4.83;;
23288;SDS011;11813;50.834;4.280;2022-11-20T11:40:12;9.73;;;4.67;;
23288;SDS011;11813;50.834;4.280;2022-11-20T11:42:42;8.53;;;4.50;;
23288;SDS011;11813;50.834;4.280;2022-11-20T11:45:13;11.80;;;5.10;;
23288;SDS011;11813;50.834;4.280;2022-11-20T11:52:33;10.57;;;4.73;;
23288;SDS011;11813;50.834;4.280;2022-11-20T11:55:25;8.03;;;4.37;;
23288;SDS011;11813;50.834;4.280;2022-11-20T11:58:10;12.80;;;4.53;;
23288;SDS011;11813;50.834;4.280;2022-11-20T12:00:37;10.00;;;4.20;;
23288;SDS011;11813;50.834;4.280;2022-11-20T12:03:17;10.93;;;4.70;;
23288;SDS011;11813;50.834;4.280;2022-11-20T12:05:50;7.60;;;3.30;;
23288;SDS011;11813;50.834;4.280;2022-11-20T12:08:40;9.80;;;4.27;;
23288;SDS011;11813;50.834;4.280;2022-11-20T12:11:34;9.67;;;3.53;;
23288;SDS011;11813;50.834;4.280;2022-11-20T12:14:16;11.77;;;3.37;;
23288;SDS011;11813;50.834;4.280;2022-11-20T12:16:48;12.20;;;3.43;;
23288;SDS011;11813;50.834;4.280;2022-11-20T12:19:16;6.57;;;3.37;;
23288;SDS011;11813;50.834;4.280;2022-11-20T12:43:20;8.70;;;3.20;;
23288;SDS011;11813;50.834;4.280;2022-11-20T12:49:11;6.93;;;3.27;;
23288;SDS011;11813;50.834;4.280;2022-11-20T12:51:48;10.30;;;3.23;;
23288;SDS011;11813;50.834;4.280;2022-11-20T12:57:09;5.33;;;3.30;;
23288;SDS011;11813;50.834;4.280;2022-11-20T13:08:02;11.03;;;4.10;;
23288;SDS011;11813;50.834;4.280;2022-11-20T13:10:33;9.07;;;4.03;;
23288;SDS011;11813;50.834;4.280;2022-11-20T13:13:07;7.13;;;4.50;;
23288;SDS011;11813;50.834;4.280;2022-11-20T13:15:51;5.97;;;3.87;;
23288;SDS011;11813;50.834;4.280;2022-11-20T13:18:38;9.83;;;4.10;;
23288;SDS011;11813;50.834;4.280;2022-11-20T13:21:41;11.53;;;4.40;;
23288;SDS011;11813;50.834;4.280;2022-11-20T13:24:04;4.53;;;3.57;;
23288;SDS011;11813;50.834;4.280;2022-11-20T13:26:30;6.53;;;4.10;;
23288;SDS011;11813;50.834;4.280;2022-11-20T13:29:10;8.23;;;3.77;;
23288;SDS011;11813;50.834;4.280;2022-11-20T13:31:42;5.27;;;3.40;;
23288;SDS011;11813;50.834;4.280;2022-11-20T13:34:11;5.87;;;3.77;;
23288;SDS011;11813;50.834;4.280;2022-11-20T13:36:51;8.27;;;3.60;;
23288;SDS011;11813;50.834;4.280;2022-11-20T13:39:25;4.20;;;3.40;;
23288;SDS011;11813;50.834;4.280;2022-11-20T13:41:56;5.30;;;4.00;;
23288;SDS011;11813;50.834;4.280;2022-11-20T13:47:03;8.23;;;3.50;;
23288;SDS011;11813;50.834;4.280;2022-11-20T13:49:39;8.90;;;4.50;;
23288;SDS011;11813;50.834;4.280;2022-11-20T13:55:06;7.87;;;3.73;;
23288;SDS011;11813;50.834;4.280;2022-11-20T13:57:58;5.00;;;3.40;;
23288;SDS011;11813;50.834;4.280;2022-11-20T14:00:46;4.97;;;3.83;;
23288;SDS011;11813;50.834;4.280;2022-11-20T14:03:20;11.60;;;3.73;;
23288;SDS011;11813;50.834;4.280;2022-11-20T14:05:52;4.80;;;3.40;;
23288;SDS011;11813;50.834;4.280;2022-11-20T14:08:26;4.70;;;3.60;;
23288;SDS011;11813;50.834;4.280;2022-11-20T14:11:04;4.60;;;3.40;;
23288;SDS011;11813;50.834;4.280;2022-11-20T14:13:30;8.97;;;4.83;;
23288;SDS011;11813;50.834;4.280;2022-11-20T14:15:59;5.80;;;4.10;;
23288;SDS011;11813;50.834;4.280;2022-11-20T14:18:25;5.33;;;4.03;;
23288;SDS011;11813;50.834;4.280;2022-11-20T14:20:52;15.03;;;7.60;;
23288;SDS011;11813;50.834;4.280;2022-11-20T14:23:27;7.70;;;4.17;;
23288;SDS011;11813;50.834;4.280;2022-11-20T14:25:53;5.13;;;3.47;;
23288;SDS011;11813;50.834;4.280;2022-11-20T14:28:24;4.20;;;3.03;;
23288;SDS011;11813;50.834;4.280;2022-11-20T14:30:55;6.73;;;4.20;;
23288;SDS011;11813;50.834;4.280;2022-11-20T14:33:22;5.00;;;3.23;;
23288;SDS011;11813;50.834;4.280;2022-11-20T14:35:51;5.47;;;3.17;;
23288;SDS011;11813;50.834;4.280;2022-11-20T14:38:20;7.10;;;3.40;;
23288;SDS011;11813;50.834;4.280;2022-11-20T14:40:49;7.50;;;3.77;;
23288;SDS011;11813;50.834;4.280;2022-11-20T14:43:18;5.50;;;4.43;;
23288;SDS011;11813;50.834;4.280;2022-11-20T14:51:04;3.13;;;2.83;;
23288;SDS011;11813;50.834;4.280;2022-11-20T14:53:29;5.73;;;3.87;;
23288;SDS011;11813;50.834;4.280;2022-11-20T14:55:56;3.60;;;2.60;;
23288;SDS011;11813;50.834;4.280;2022-11-20T14:58:25;3.50;;;3.00;;
23288;SDS011;11813;50.834;4.280;2022-11-20T15:03:22;7.27;;;4.17;;
23288;SDS011;11813;50.834;4.280;2022-11-20T15:05:48;3.97;;;3.47;;
23288;SDS011;11813;50.834;4.280;2022-11-20T15:08:15;4.43;;;3.53;;
23288;SDS011;11813;50.834;4.280;2022-11-20T15:10:45;4.23;;;3.37;;
23288;SDS011;11813;50.834;4.280;2022-11-20T15:13:13;3.93;;;2.80;;
23288;SDS011;11813;50.834;4.280;2022-11-20T15:18:12;3.97;;;3.57;;
23288;SDS011;11813;50.834;4.280;2022-11-20T15:20:46;6.20;;;3.80;;
23288;SDS011;11813;50.834;4.280;2022-11-20T15:23:13;6.07;;;3.30;;
23288;SDS011;11813;50.834;4.280;2022-11-20T15:25:40;8.87;;;3.80;;
23288;SDS011;11813;50.834;4.280;2022-11-20T15:28:40;4.77;;;4.20;;
23288;SDS011;11813;50.834;4.280;2022-11-20T15:30:59;7.63;;;3.80;;
23288;SDS011;11813;50.834;4.280;2022-11-20T15:33:27;7.30;;;3.90;;
23288;SDS011;11813;50.834;4.280;2022-11-20T15:35:53;6.17;;;3.90;;
23288;SDS011;11813;50.834;4.280;2022-11-20T15:38:19;4.73;;;3.80;;
23288;SDS011;11813;50.834;4.280;2022-11-20T15:40:44;8.07;;;4.40;;
23288;SDS011;11813;50.834;4.280;2022-11-20T15:43:10;8.83;;;4.47;;
23288;SDS011;11813;50.834;4.280;2022-11-20T15:45:46;8.20;;;3.40;;
23288;SDS011;11813;50.834;4.280;2022-11-20T15:48:19;9.33;;;3.83;;
23288;SDS011;11813;50.834;4.280;2022-11-20T15:51:01;8.27;;;4.00;;
23288;SDS011;11813;50.834;4.280;2022-11-20T15:53:31;9.23;;;4.23;;
23288;SDS011;11813;50.834;4.280;2022-11-20T15:55:57;7.47;;;3.93;;
23288;SDS011;11813;50.834;4.280;2022-11-20T15:58:23;6.70;;;3.43;;
23288;SDS011;11813;50.834;4.280;2022-11-20T16:00:49;8.23;;;3.93;;
23288;SDS011;11813;50.834;4.280;2022-11-20T16:03:15;7.47;;;3.90;;
23288;SDS011;11813;50.834;4.280;2022-11-20T16:05:42;11.80;;;3.47;;
23288;SDS011;11813;50.834;4.280;2022-11-20T16:08:07;7.93;;;4.10;;
23288;SDS011;11813;50.834;4.280;2022-11-20T16:10:33;18.40;;;3.63;;
23288;SDS011;11813;50.834;4.280;2022-11-20T16:13:00;10.63;;;3.50;;